Time;durP1;ratioP1;P1;durP2;ratioP2;P2;SDS_P1;SDS_P2;PMS_P1;PMS_P2;Temp;Humidity;BMP_temperature;BMP_pressure;BME280_temperature;BME280_humidity;BME280_pressure;Samples;Min_cycle;Max_cycle;Signal;HPM_P1;HPM_P2
2021/05/02 00:02:19;;;;;;;21.67;19.23;;;;;;;13.68;70.32;100042.63;4882167;28;97906;-60
2021/05/02 00:04:45;;;;;;;20.42;18.25;;;;;;;13.67;70.29;100046.41;4902251;28;126750;-62
2021/05/02 00:07:12;;;;;;;21.52;19.17;;;;;;;13.67;70.22;100038.28;4903713;28;98207;-60
2021/05/02 00:09:38;;;;;;;23.35;19.80;;;;;;;13.65;70.18;100032.38;4884972;28;126914;-62
2021/05/02 00:12:04;;;;;;;21.63;19.20;;;;;;;13.65;70.18;100043.22;4902664;28;121883;-62
2021/05/02 00:14:30;;;;;;;23.10;20.20;;;;;;;13.63;70.24;100043.50;4903188;28;119326;-61
2021/05/02 00:16:56;;;;;;;22.08;19.73;;;;;;;13.61;70.33;100034.88;4902831;28;98566;-60
2021/05/02 00:19:22;;;;;;;22.23;19.83;;;;;;;13.59;70.41;100030.84;4902274;28;126707;-60
2021/05/02 00:21:50;;;;;;;23.05;20.40;;;;;;;13.59;70.37;100025.44;4884173;28;123372;-60
2021/05/02 00:24:21;;;;;;;21.90;19.50;;;;;;;13.58;70.17;100024.63;4902045;28;98818;-60
2021/05/02 00:26:47;;;;;;;25.17;21.42;;;;;;;13.59;70.09;100020.03;4902367;28;98906;-60
2021/05/02 00:29:14;;;;;;;24.42;20.63;;;;;;;13.55;70.50;100019.00;4917880;28;118389;-60
2021/05/02 00:31:41;;;;;;;24.65;21.25;;;;;;;13.55;70.35;100008.19;4900522;28;97847;-60
2021/05/02 00:34:08;;;;;;;24.38;20.75;;;;;;;13.54;70.31;100007.38;4885571;28;98401;-62
2021/05/02 00:36:34;;;;;;;24.42;21.63;;;;;;;13.53;70.65;100005.78;4902676;28;112053;-60
2021/05/02 00:39:00;;;;;;;26.65;22.17;;;;;;;13.51;70.41;100008.78;4884661;28;127924;-62
2021/05/02 00:41:32;;;;;;;24.60;21.90;;;;;;;13.48;70.38;100017.50;4900795;28;105294;-62
2021/05/02 00:44:13;;;;;;;25.05;21.73;;;;;;;13.46;70.71;100014.28;4901318;28;98134;-62
2021/05/02 00:46:51;;;;;;;24.02;21.40;;;;;;;13.44;70.85;100012.97;4904655;28;98519;-60
2021/05/02 00:49:32;;;;;;;24.63;21.92;;;;;;;13.43;70.84;100001.34;4901606;28;97949;-60
2021/05/02 00:52:20;;;;;;;25.05;22.17;;;;;;;13.40;70.92;100015.47;4901915;28;98173;-62
2021/05/02 00:54:50;;;;;;;24.42;21.52;;;;;;;13.40;71.07;100015.47;4896367;28;99260;-59
2021/05/02 00:57:26;;;;;;;26.13;22.58;;;;;;;13.41;70.96;100016.28;4881371;28;99652;-62
2021/05/02 01:00:08;;;;;;;26.77;22.05;;;;;;;13.38;71.03;100017.66;4882228;28;97840;-62
2021/05/02 01:02:35;;;;;;;25.63;22.83;;;;;;;13.39;71.33;100027.38;4883847;28;98032;-60
2021/05/02 01:05:06;;;;;;;26.55;23.58;;;;;;;13.35;71.34;100017.47;4900877;28;98442;-59
2021/05/02 01:07:55;;;;;;;26.15;23.10;;;;;;;13.34;71.20;100005.03;4903080;28;112685;-59
2021/05/02 01:10:21;;;;;;;28.45;24.42;;;;;;;13.33;71.49;100019.66;4917111;28;99114;-62
2021/05/02 01:12:52;;;;;;;27.25;23.85;;;;;;;13.34;71.48;100013.16;4902462;28;122853;-62
2021/05/02 01:15:23;;;;;;;27.02;23.10;;;;;;;13.31;71.51;100016.44;4901611;28;113216;-59
2021/05/02 01:17:54;;;;;;;27.55;23.13;;;;;;;13.31;71.38;100013.72;4900132;28;98975;-62
2021/05/02 01:20:20;;;;;;;26.80;23.88;;;;;;;13.28;71.56;100009.72;4901659;28;98320;-59
2021/05/02 01:22:46;;;;;;;28.13;23.95;;;;;;;13.27;71.29;100003.50;4901384;28;123266;-59
2021/05/02 01:25:12;;;;;;;29.58;24.35;;;;;;;13.26;71.66;99996.47;4899986;28;128747;-62
2021/05/02 01:27:38;;;;;;;27.65;23.92;;;;;;;13.25;71.63;99986.75;4902273;28;98457;-59
2021/05/02 01:30:09;;;;;;;27.45;23.02;;;;;;;13.25;71.66;99989.47;4901999;28;127578;-62
2021/05/02 01:32:35;;;;;;;27.30;24.33;;;;;;;13.23;71.70;99969.22;4901434;28;111109;-59
2021/05/02 01:35:03;;;;;;;28.70;24.95;;;;;;;13.24;71.97;99968.94;4902805;28;98671;-63
2021/05/02 01:37:29;;;;;;;27.90;24.25;;;;;;;13.23;71.89;99978.13;4900458;28;119250;-62
2021/05/02 01:39:55;;;;;;;28.42;23.98;;;;;;;13.23;71.93;99977.31;4916515;28;98079;-59
2021/05/02 01:42:21;;;;;;;27.23;24.15;;;;;;;13.19;71.43;99968.97;4882430;28;122769;-59
2021/05/02 01:44:47;;;;;;;27.88;24.25;;;;;;;13.19;71.88;99970.88;4900608;28;128072;-59
2021/05/02 01:47:20;;;;;;;28.05;24.75;;;;;;;13.17;71.88;99975.78;4901529;28;106230;-62
2021/05/02 01:49:50;;;;;;;28.40;24.63;;;;;;;13.18;71.96;99969.28;4902045;28;97947;-62
2021/05/02 01:52:17;;;;;;;28.20;24.33;;;;;;;13.15;71.87;99965.25;4898686;28;111391;-59
2021/05/02 01:54:43;;;;;;;28.65;24.67;;;;;;;13.18;71.87;99959.25;4899379;28;98106;-59
2021/05/02 01:57:10;;;;;;;31.17;25.33;;;;;;;13.24;71.53;99963.50;4899250;28;99120;-59
2021/05/02 01:59:37;;;;;;;28.63;24.85;;;;;;;13.29;71.39;99964.53;4884064;28;97825;-61
2021/05/02 02:02:03;;;;;;;27.92;24.65;;;;;;;13.31;71.31;99952.28;4901806;28;97872;-60
2021/05/02 02:04:30;;;;;;;29.13;25.02;;;;;;;13.34;71.06;99959.00;4900948;28;118052;-62
2021/05/02 02:06:57;;;;;;;28.98;25.10;;;;;;;13.34;71.18;99954.41;4899235;28;97965;-59
2021/05/02 02:09:24;;;;;;;29.60;25.60;;;;;;;13.34;71.10;99950.91;4901593;28;98100;-59
2021/05/02 02:11:52;;;;;;;30.05;25.02;;;;;;;13.36;70.88;99945.97;4883177;28;97738;-62
2021/05/02 02:14:18;;;;;;;29.98;25.45;;;;;;;13.35;70.82;99947.06;4901082;28;98978;-62
2021/05/02 02:16:45;;;;;;;28.45;24.45;;;;;;;13.34;70.93;99945.47;4900622;28;118424;-60
2021/05/02 02:19:11;;;;;;;28.55;24.88;;;;;;;13.34;71.36;99965.22;4901478;28;98189;-59
2021/05/02 02:21:37;;;;;;;28.80;24.85;;;;;;;13.33;70.79;99960.91;4900684;28;121664;-62
2021/05/02 02:24:04;;;;;;;29.40;25.50;;;;;;;13.29;70.83;99967.22;4909311;28;98372;-59
2021/05/02 02:26:54;;;;;;;30.02;25.33;;;;;;;13.28;71.05;99958.28;4899385;28;113162;-60
2021/05/02 02:29:20;;;;;;;27.73;24.73;;;;;;;13.27;71.47;99971.00;4899309;28;97848;-62
2021/05/02 02:31:46;;;;;;;30.67;26.08;;;;;;;13.23;71.10;99967.31;4899016;28;122497;-62
2021/05/02 02:34:14;;;;;;;29.55;24.70;;;;;;;13.25;70.97;99970.53;4898956;28;128369;-59
2021/05/02 02:36:42;;;;;;;28.65;25.05;;;;;;;13.25;71.30;99967.81;4899038;28;98455;-60
2021/05/02 02:39:08;;;;;;;28.10;24.50;;;;;;;13.22;71.10;99960.25;4899676;28;97972;-62
2021/05/02 02:41:38;;;;;;;28.05;24.92;;;;;;;13.20;71.32;99972.47;4915561;28;107126;-59
2021/05/02 02:44:09;;;;;;;28.35;24.65;;;;;;;13.18;71.16;99961.94;4899522;28;98217;-59
2021/05/02 02:46:41;;;;;;;30.15;25.70;;;;;;;13.19;71.19;99973.56;4899778;28;102852;-59
2021/05/02 02:49:10;;;;;;;30.13;25.00;;;;;;;13.17;71.50;99962.25;4900691;28;97753;-62
2021/05/02 02:51:36;;;;;;;30.10;25.85;;;;;;;13.15;71.30;99973.34;4899154;28;98114;-59
2021/05/02 02:54:02;;;;;;;30.10;25.30;;;;;;;13.15;71.42;99967.16;4882547;28;128293;-62
2021/05/02 02:56:29;;;;;;;30.65;25.60;;;;;;;13.15;71.41;99976.06;4882811;28;98945;-62
2021/05/02 02:58:59;;;;;;;29.98;25.55;;;;;;;13.10;71.56;99972.66;4899866;28;97962;-62
2021/05/02 03:01:26;;;;;;;31.50;25.98;;;;;;;13.11;71.73;99972.34;4901014;28;97852;-59
2021/05/02 03:03:58;;;;;;;29.23;25.23;;;;;;;13.10;71.45;99973.44;4900776;28;106533;-62
2021/05/02 03:06:28;;;;;;;29.60;24.95;;;;;;;13.08;71.66;99970.22;4900324;28;98440;-62
2021/05/02 03:08:55;;;;;;;30.08;24.40;;;;;;;13.08;71.58;99985.66;4901339;28;97946;-62
2021/05/02 03:11:22;;;;;;;29.98;25.08;;;;;;;13.05;71.51;99978.13;4900081;28;111780;-59
2021/05/02 03:13:48;;;;;;;30.83;26.23;;;;;;;13.03;72.04;99976.53;4900773;28;98493;-62
2021/05/02 03:16:15;;;;;;;29.10;25.88;;;;;;;12.99;71.98;99967.41;4898280;28;101736;-59
2021/05/02 03:19:14;;;;;;;29.80;25.77;;;;;;;12.97;71.89;99964.19;4879221;28;114535;-59
2021/05/02 03:21:52;;;;;;;29.60;25.65;;;;;;;12.96;71.95;99978.78;4880531;28;110066;-59
2021/05/02 03:24:43;;;;;;;31.83;25.98;;;;;;;12.95;71.92;99971.00;4896972;28;116089;-63
2021/05/02 03:27:25;;;;;;;30.73;26.38;;;;;;;12.91;71.92;99965.34;4899733;28;98658;-59
2021/05/02 03:29:51;;;;;;;29.13;25.17;;;;;;;12.95;72.05;99968.28;4899599;28;98200;-61
2021/05/02 03:32:18;;;;;;;30.50;26.23;;;;;;;12.91;72.06;99968.06;4881963;28;122956;-62
2021/05/02 03:34:44;;;;;;;30.58;26.17;;;;;;;12.91;72.38;99959.16;4897635;28;119828;-59
2021/05/02 03:37:12;;;;;;;30.88;26.58;;;;;;;12.91;72.12;99962.66;4915679;28;99397;-61
2021/05/02 03:39:39;;;;;;;31.67;26.23;;;;;;;12.91;71.93;99965.34;4903301;28;97912;-59
2021/05/02 03:42:05;;;;;;;29.85;26.40;;;;;;;12.89;72.77;99953.22;4902420;28;98176;-59
2021/05/02 03:44:31;;;;;;;30.45;26.33;;;;;;;12.89;72.08;99962.16;4901917;28;99490;-62
2021/05/02 03:46:57;;;;;;;31.08;26.35;;;;;;;12.88;72.26;99954.31;4902617;28;127052;-59
2021/05/02 03:49:23;;;;;;;30.90;25.58;;;;;;;12.87;71.97;99952.72;4903740;28;98169;-59
2021/05/02 03:51:50;;;;;;;32.58;27.88;;;;;;;12.86;71.95;99956.53;4901664;28;107312;-62
2021/05/02 03:54:16;;;;;;;31.67;26.50;;;;;;;12.85;72.68;99955.75;4903814;28;99091;-62
2021/05/02 03:56:44;;;;;;;32.38;28.38;;;;;;;12.84;72.51;99956.00;4901687;28;98858;-63
2021/05/02 03:59:18;;;;;;;31.23;26.67;;;;;;;12.83;72.46;99954.41;4903840;28;111413;-63
2021/05/02 04:01:57;;;;;;;29.90;26.45;;;;;;;12.86;72.59;99956.53;4903842;28;98021;-59
2021/05/02 04:04:25;;;;;;;30.30;26.92;;;;;;;12.83;72.56;99957.91;4903766;28;115747;-63
2021/05/02 04:06:56;;;;;;;29.38;26.17;;;;;;;12.84;72.36;99953.31;4901951;28;98563;-64
2021/05/02 04:09:22;;;;;;;31.38;27.05;;;;;;;12.81;72.55;99952.00;4886463;28;98355;-63
2021/05/02 04:11:48;;;;;;;30.90;26.52;;;;;;;12.81;72.86;99957.44;4902567;28;122124;-62
2021/05/02 04:14:15;;;;;;;32.05;26.75;;;;;;;12.82;72.78;99955.53;4902130;28;127837;-63
2021/05/02 04:16:42;;;;;;;30.35;27.13;;;;;;;12.82;72.24;99958.22;4903640;28;98701;-62
2021/05/02 04:19:09;;;;;;;31.58;27.90;;;;;;;12.80;72.38;99963.91;4901859;28;98877;-59
2021/05/02 04:21:36;;;;;;;31.13;27.75;;;;;;;12.81;72.64;99967.41;4903356;28;98257;-59
2021/05/02 04:24:02;;;;;;;31.58;27.42;;;;;;;12.81;72.74;99962.00;4904114;28;98287;-60
2021/05/02 04:26:28;;;;;;;31.85;27.08;;;;;;;12.80;72.34;99972.03;4902808;28;99202;-60
2021/05/02 04:28:54;;;;;;;32.20;27.08;;;;;;;12.77;72.38;99968.03;4902080;28;128378;-60
2021/05/02 04:31:20;;;;;;;32.33;27.77;;;;;;;12.80;72.63;99974.72;4902514;28;121974;-60
2021/05/02 04:33:47;;;;;;;31.58;26.90;;;;;;;12.81;72.50;99973.66;4902640;28;126834;-60
2021/05/02 04:36:13;;;;;;;31.58;27.02;;;;;;;12.80;72.83;99977.44;4902870;28;98498;-59
2021/05/02 04:38:39;;;;;;;34.17;29.27;;;;;;;12.78;72.59;99983.16;4902427;28;98065;-62
2021/05/02 04:41:06;;;;;;;33.58;28.02;;;;;;;12.78;72.54;99985.06;4902106;28;124560;-63
2021/05/02 04:43:32;;;;;;;32.08;27.38;;;;;;;12.78;72.51;99988.56;4898072;28;100750;-63
2021/05/02 04:45:58;;;;;;;33.97;28.33;;;;;;;12.78;72.94;99983.16;4883644;28;102480;-62
2021/05/02 04:48:24;;;;;;;31.35;27.95;;;;;;;12.77;72.60;99986.94;4882938;28;127252;-62
2021/05/02 04:50:50;;;;;;;33.40;28.48;;;;;;;12.77;72.65;99997.78;4896693;28;116590;-60
2021/05/02 04:53:18;;;;;;;31.90;28.35;;;;;;;12.80;72.43;99992.84;4903215;28;98496;-63
2021/05/02 04:55:44;;;;;;;31.95;27.70;;;;;;;12.78;72.47;99993.97;4902567;28;98129;-62
2021/05/02 04:58:10;;;;;;;31.45;26.83;;;;;;;12.77;72.84;99997.78;4903096;28;116264;-60
2021/05/02 05:00:36;;;;;;;29.73;26.23;;;;;;;12.78;72.65;99999.38;4903413;28;98197;-63
2021/05/02 05:03:03;;;;;;;34.08;27.95;;;;;;;12.80;72.33;100009.09;4902379;28;98259;-63
2021/05/02 05:05:29;;;;;;;29.77;26.25;;;;;;;12.78;72.61;100010.19;4903111;28;98885;-63
2021/05/02 05:07:56;;;;;;;32.00;26.95;;;;;;;12.79;72.58;100008.28;4902645;28;98140;-62
2021/05/02 05:10:22;;;;;;;31.42;26.77;;;;;;;12.78;72.62;100004.78;4902523;28;97836;-60
2021/05/02 05:12:48;;;;;;;30.75;26.52;;;;;;;12.76;72.57;100012.38;4902662;28;100372;-62
2021/05/02 05:15:14;;;;;;;29.60;26.05;;;;;;;12.79;72.57;100024.50;4901503;28;128645;-62
2021/05/02 05:17:40;;;;;;;30.23;26.52;;;;;;;12.77;72.78;100013.16;4901336;28;127353;-63
2021/05/02 05:20:07;;;;;;;31.52;27.13;;;;;;;12.77;72.78;100021.28;4897280;28;121492;-63
2021/05/02 05:22:33;;;;;;;30.20;26.30;;;;;;;12.78;72.84;100022.91;4895083;28;116646;-63
2021/05/02 05:24:59;;;;;;;30.00;26.35;;;;;;;12.76;72.72;100020.47;4901440;28;128050;-60
2021/05/02 05:27:26;;;;;;;31.13;26.73;;;;;;;12.73;73.03;100028.38;4901292;28;116287;-63
2021/05/02 05:29:52;;;;;;;29.15;25.63;;;;;;;12.72;73.30;100019.47;4902879;28;97945;-63
2021/05/02 05:32:18;;;;;;;29.05;25.65;;;;;;;12.72;73.17;100032.19;4902812;28;98082;-62
2021/05/02 05:34:44;;;;;;;29.92;26.30;;;;;;;12.72;73.09;100032.97;4885452;28;98615;-60
2021/05/02 05:37:10;;;;;;;29.05;25.90;;;;;;;12.72;73.09;100034.88;4883355;28;127126;-63
2021/05/02 05:39:37;;;;;;;30.00;26.63;;;;;;;12.72;73.28;100038.38;4896612;28;122283;-63
2021/05/02 05:42:04;;;;;;;29.25;26.00;;;;;;;12.75;73.29;100039.72;4880538;28;98229;-60
2021/05/02 05:44:30;;;;;;;31.17;26.30;;;;;;;12.75;73.08;100037.81;4897769;28;106607;-62
2021/05/02 05:46:57;;;;;;;30.38;26.20;;;;;;;12.76;73.12;100044.03;4897262;28;123083;-62
2021/05/02 05:49:23;;;;;;;29.58;26.40;;;;;;;12.76;72.95;100052.94;4899375;28;97827;-60
2021/05/02 05:51:52;;;;;;;29.63;25.27;;;;;;;12.75;73.29;100056.75;4897630;28;98390;-60
2021/05/02 05:54:19;;;;;;;29.38;26.05;;;;;;;12.74;72.85;100055.16;4894234;28;98250;-63
2021/05/02 05:56:45;;;;;;;28.92;25.83;;;;;;;12.73;73.45;100061.66;4897682;28;97807;-63
2021/05/02 05:59:11;;;;;;;31.02;25.60;;;;;;;12.74;73.05;100068.66;4897151;28;122681;-62
2021/05/02 06:01:37;;;;;;;31.13;26.02;;;;;;;12.72;73.07;100062.72;4896932;28;116328;-62
2021/05/02 06:04:03;;;;;;;30.02;26.67;;;;;;;12.73;73.08;100067.06;4898492;28;98932;-62
2021/05/02 06:06:33;;;;;;;29.45;26.10;;;;;;;12.73;73.06;100064.34;4876023;28;126539;-62
2021/05/02 06:09:01;;;;;;;29.15;25.67;;;;;;;12.72;73.47;100070.84;4896909;28;99185;-60
2021/05/02 06:11:29;;;;;;;28.63;25.05;;;;;;;12.74;73.60;100078.69;4898505;28;98375;-61
2021/05/02 06:13:56;;;;;;;29.88;26.20;;;;;;;12.78;73.18;100069.69;4896607;28;98944;-60
2021/05/02 06:16:22;;;;;;;29.40;26.20;;;;;;;12.77;73.41;100067.25;4896214;28;98122;-60
2021/05/02 06:18:48;;;;;;;31.00;26.42;;;;;;;12.82;73.20;100069.13;4897838;28;118796;-63
2021/05/02 06:21:14;;;;;;;29.35;26.08;;;;;;;12.83;73.33;100070.72;4898135;28;97996;-63
2021/05/02 06:23:40;;;;;;;29.67;26.35;;;;;;;12.85;73.51;100069.34;4899701;28;98251;-60
2021/05/02 06:26:06;;;;;;;30.38;26.13;;;;;;;12.86;73.15;100070.13;4898066;28;126456;-60
2021/05/02 06:28:33;;;;;;;30.70;27.33;;;;;;;12.88;73.34;100078.75;4880598;28;98084;-60
2021/05/02 06:30:59;;;;;;;29.85;25.67;;;;;;;12.91;73.22;100080.88;4896500;28;99350;-63
2021/05/02 06:33:25;;;;;;;29.52;26.30;;;;;;;12.90;73.24;100079.28;4897670;28;128233;-62
2021/05/02 06:35:51;;;;;;;29.77;25.27;;;;;;;12.92;73.01;100074.38;4897036;28;111693;-62
2021/05/02 06:38:17;;;;;;;29.05;25.95;;;;;;;12.94;73.27;100077.59;4897592;28;123186;-60
2021/05/02 06:40:43;;;;;;;28.88;25.73;;;;;;;12.95;73.03;100074.59;4897826;28;98474;-60
2021/05/02 06:43:09;;;;;;;29.35;25.63;;;;;;;12.96;73.19;100078.91;4898012;28;100280;-62
2021/05/02 06:45:35;;;;;;;30.38;25.75;;;;;;;12.95;73.11;100080.00;4896745;28;98565;-60
2021/05/02 06:48:01;;;;;;;29.50;25.83;;;;;;;12.97;73.32;100085.94;4897248;28;121740;-60
2021/05/02 06:50:27;;;;;;;28.40;25.33;;;;;;;12.99;73.24;100088.34;4896542;28;127030;-62
2021/05/02 06:52:53;;;;;;;28.77;25.67;;;;;;;13.00;73.27;100085.31;4895658;28;128719;-62
2021/05/02 06:55:19;;;;;;;28.95;25.33;;;;;;;12.97;73.31;100077.81;4878969;28;127353;-62
2021/05/02 06:57:45;;;;;;;28.38;24.65;;;;;;;13.00;73.22;100073.69;4895593;28;118957;-60
2021/05/02 07:00:12;;;;;;;28.05;25.02;;;;;;;13.02;73.22;100079.66;4862956;28;128348;-62
2021/05/02 07:02:38;;;;;;;28.42;25.33;;;;;;;13.06;73.36;100077.97;4895503;28;105016;-60
2021/05/02 07:05:05;;;;;;;29.20;25.98;;;;;;;13.08;72.97;100089.28;4879680;28;98131;-59
2021/05/02 07:07:31;;;;;;;27.92;24.80;;;;;;;13.09;72.75;100080.09;4895155;28;107141;-60
2021/05/02 07:09:57;;;;;;;28.33;25.33;;;;;;;13.11;73.05;100072.47;4878507;28;129120;-62
2021/05/02 07:12:24;;;;;;;28.30;24.92;;;;;;;13.09;72.87;100077.38;4896050;28;127121;-63
2021/05/02 07:14:50;;;;;;;27.90;24.90;;;;;;;13.11;73.04;100077.06;4897544;28;97813;-63
2021/05/02 07:17:16;;;;;;;28.83;25.45;;;;;;;13.09;73.07;100077.38;4897233;28;98192;-62
2021/05/02 07:19:43;;;;;;;29.40;24.95;;;;;;;13.11;73.18;100082.50;4895644;28;99098;-60
2021/05/02 07:22:09;;;;;;;26.85;24.05;;;;;;;13.11;72.99;100083.28;4897504;28;98128;-62
2021/05/02 07:24:35;;;;;;;27.80;24.77;;;;;;;13.17;72.81;100084.03;4898094;28;98248;-63
2021/05/02 07:27:01;;;;;;;27.10;24.20;;;;;;;13.21;72.85;100079.66;4896842;28;122901;-59
2021/05/02 07:29:27;;;;;;;27.88;24.83;;;;;;;13.21;72.90;100082.34;4896720;28;127964;-59
2021/05/02 07:31:53;;;;;;;27.15;23.95;;;;;;;13.21;72.90;100085.84;4896267;28;129307;-62
2021/05/02 07:34:22;;;;;;;27.67;24.67;;;;;;;13.25;72.84;100086.09;4896855;28;127885;-59
2021/05/02 07:36:48;;;;;;;27.42;23.77;;;;;;;13.25;72.79;100089.63;4897554;28;97871;-62
2021/05/02 07:39:14;;;;;;;26.92;24.02;;;;;;;13.32;72.62;100089.22;4897089;28;98356;-62
2021/05/02 07:41:40;;;;;;;26.65;23.77;;;;;;;13.35;72.85;100082.44;4896682;28;128285;-59
2021/05/02 07:44:07;;;;;;;27.90;24.90;;;;;;;13.36;72.65;100092.16;4896842;28;127466;-63
2021/05/02 07:46:33;;;;;;;26.55;23.65;;;;;;;13.38;72.47;100095.38;4897311;28;101542;-60
2021/05/02 07:48:59;;;;;;;28.13;23.98;;;;;;;13.36;72.76;100089.44;4895956;28;127384;-59
2021/05/02 07:51:25;;;;;;;26.48;23.63;;;;;;;13.38;72.61;100092.66;4897016;28;98980;-60
2021/05/02 07:53:52;;;;;;;28.00;24.42;;;;;;;13.47;72.50;100085.47;4896734;28;104419;-63
2021/05/02 07:56:18;;;;;;;27.45;24.42;;;;;;;13.51;72.48;100084.59;4896688;28;98086;-62
2021/05/02 07:58:44;;;;;;;28.83;24.95;;;;;;;13.56;72.28;100089.13;4896023;28;125906;-60
2021/05/02 08:01:10;;;;;;;27.60;24.42;;;;;;;13.62;71.94;100101.47;4896009;28;116363;-62
2021/05/02 08:03:36;;;;;;;28.33;25.27;;;;;;;13.70;72.01;100098.09;4895392;28;125607;-60
2021/05/02 08:06:02;;;;;;;28.02;24.67;;;;;;;13.76;71.95;100096.13;4896342;28;122939;-62
2021/05/02 08:08:28;;;;;;;28.33;24.92;;;;;;;13.78;71.72;100098.50;4896822;28;114952;-62
2021/05/02 08:10:55;;;;;;;29.33;25.15;;;;;;;13.66;72.44;100102.50;4896438;28;99127;-62
2021/05/02 08:13:21;;;;;;;29.45;25.25;;;;;;;13.68;72.30;100104.91;4896541;28;123713;-60
2021/05/02 08:15:47;;;;;;;29.33;25.00;;;;;;;13.65;72.49;100105.50;4895730;28;123299;-59
2021/05/02 08:18:14;;;;;;;29.25;25.70;;;;;;;13.63;72.47;100103.06;4896333;28;98695;-59
2021/05/02 08:20:40;;;;;;;29.63;25.30;;;;;;;13.60;72.70;100111.00;4896726;28;106670;-60
2021/05/02 08:23:07;;;;;;;29.00;25.45;;;;;;;13.63;72.54;100110.41;4896107;28;98254;-62
2021/05/02 08:25:33;;;;;;;30.50;26.13;;;;;;;13.62;72.50;100112.31;4899109;28;109833;-59
2021/05/02 08:27:59;;;;;;;34.20;27.30;;;;;;;13.62;72.55;100115.00;4898287;28;116507;-62
2021/05/02 08:30:25;;;;;;;30.80;25.70;;;;;;;13.64;72.32;100117.44;4899999;28;98041;-62
2021/05/02 08:32:51;;;;;;;29.00;25.13;;;;;;;13.68;72.22;100124.69;4897495;28;125631;-59
2021/05/02 08:35:17;;;;;;;31.13;26.25;;;;;;;13.72;72.06;100124.91;4899373;28;97973;-62
2021/05/02 08:37:43;;;;;;;28.67;24.67;;;;;;;13.70;72.37;100124.38;4898139;28;120542;-62
2021/05/02 08:40:10;;;;;;;30.27;25.95;;;;;;;13.72;72.15;100119.47;4897984;28;127019;-62
2021/05/02 08:42:36;;;;;;;32.35;26.67;;;;;;;13.80;72.37;100124.22;4898185;28;98148;-62
2021/05/02 08:45:02;;;;;;;29.85;26.35;;;;;;;13.89;71.95;100125.13;4899081;28;123351;-59
2021/05/02 08:47:35;;;;;;;29.88;26.17;;;;;;;13.93;71.97;100122.63;4899054;28;119311;-61
2021/05/02 08:50:07;;;;;;;32.00;26.95;;;;;;;14.03;71.64;100121.63;4900029;28;98487;-60
2021/05/02 08:52:33;;;;;;;31.45;26.60;;;;;;;14.15;71.46;100127.41;4899796;28;108129;-59
2021/05/02 08:54:59;;;;;;;29.27;25.58;;;;;;;14.20;71.30;100124.59;4897319;28;98132;-59
2021/05/02 08:57:25;;;;;;;32.15;26.38;;;;;;;14.36;71.04;100131.34;4899312;28;102583;-62
2021/05/02 08:59:51;;;;;;;32.05;25.95;;;;;;;14.54;69.99;100126.97;4899773;28;98864;-62
2021/05/02 09:02:25;;;;;;;32.95;26.75;;;;;;;14.63;69.86;100121.63;4898192;28;127509;-64
2021/05/02 09:04:53;;;;;;;29.88;25.98;;;;;;;14.64;69.92;100118.59;4882370;28;98040;-60
2021/05/02 09:07:19;;;;;;;30.83;26.83;;;;;;;14.59;70.32;100124.13;4881538;28;98486;-62
2021/05/02 09:09:46;;;;;;;32.50;27.30;;;;;;;14.46;70.86;100124.91;4899334;28;103328;-62
2021/05/02 09:12:26;;;;;;;33.72;27.70;;;;;;;14.45;71.07;100121.38;4897510;28;98132;-63
2021/05/02 09:14:53;;;;;;;33.05;27.83;;;;;;;14.58;70.56;100127.13;4900209;28;97760;-63
2021/05/02 09:17:30;;;;;;;32.67;27.58;;;;;;;14.75;70.16;100121.13;4881450;28;98382;-63
2021/05/02 09:19:57;;;;;;;33.47;28.23;;;;;;;14.82;70.18;100129.66;4898982;28;98444;-60
2021/05/02 09:22:23;;;;;;;33.28;27.58;;;;;;;14.81;69.86;100128.03;4899576;28;97773;-63
2021/05/02 09:25:05;;;;;;;33.35;27.67;;;;;;;15.03;68.85;100124.59;4899968;28;97886;-60
2021/05/02 09:27:31;;;;;;;34.47;28.23;;;;;;;15.13;69.08;100125.19;4897493;28;98660;-60
2021/05/02 09:30:13;;;;;;;32.42;27.23;;;;;;;15.25;67.99;100129.25;4881174;28;98238;-60
2021/05/02 09:32:48;;;;;;;35.25;29.27;;;;;;;15.38;68.07;100137.34;4898121;28;98586;-63
2021/05/02 09:35:30;;;;;;;34.70;28.85;;;;;;;15.49;67.95;100135.22;4899341;28;98133;-60
2021/05/02 09:38:10;;;;;;;34.70;29.08;;;;;;;15.43;68.07;100139.16;4898649;28;98187;-63
2021/05/02 09:40:48;;;;;;;35.80;29.48;;;;;;;15.50;67.95;100136.81;4898004;28;97925;-63
2021/05/02 09:43:30;;;;;;;35.10;28.30;;;;;;;15.76;67.45;100149.78;4896552;28;98571;-60
2021/05/02 09:46:33;;;;;;;37.13;30.27;;;;;;;15.56;67.35;100138.31;4895339;28;101011;-60
2021/05/02 09:49:08;;;;;;;37.13;30.13;;;;;;;15.59;68.23;100145.03;4899112;28;99104;-60
2021/05/02 09:51:35;;;;;;;37.55;30.77;;;;;;;15.74;67.28;100150.13;4894894;28;98879;-60
2021/05/02 09:54:20;;;;;;;37.30;30.35;;;;;;;15.90;66.60;100147.81;4897104;28;98194;-60
2021/05/02 09:56:58;;;;;;;36.92;29.77;;;;;;;16.15;66.01;100144.47;4903108;28;98036;-62
2021/05/02 09:59:32;;;;;;;34.50;29.67;;;;;;;16.08;66.32;100154.19;4898396;28;98364;-62
2021/05/02 10:02:13;;;;;;;34.95;28.48;;;;;;;16.13;66.00;100148.59;4897965;28;97845;-63
2021/05/02 10:04:49;;;;;;;34.35;29.08;;;;;;;16.38;66.07;100158.00;4897740;28;98489;-62
2021/05/02 10:07:21;;;;;;;34.05;27.92;;;;;;;16.17;66.18;100158.53;4897557;28;98512;-62
2021/05/02 10:09:47;;;;;;;35.42;29.52;;;;;;;16.16;66.87;100161.56;4889736;28;98944;-60
2021/05/02 10:12:14;;;;;;;34.17;28.90;;;;;;;15.91;67.64;100154.84;4894715;28;120731;-60
2021/05/02 10:14:41;;;;;;;36.03;29.90;;;;;;;15.74;68.16;100155.56;4896377;28;98328;-60
2021/05/02 10:17:08;;;;;;;35.70;28.90;;;;;;;15.63;68.59;100167.75;4896307;28;97856;-62
2021/05/02 10:19:34;;;;;;;35.17;29.30;;;;;;;15.75;68.33;100164.50;4879712;28;98294;-62
2021/05/02 10:22:00;;;;;;;33.38;28.63;;;;;;;15.68;69.20;100168.47;4897084;28;120427;-60
2021/05/02 10:24:27;;;;;;;34.33;29.23;;;;;;;15.68;68.46;100162.25;4897533;28;98719;-62
2021/05/02 10:26:53;;;;;;;35.13;28.48;;;;;;;15.68;68.85;100168.47;4896813;28;123113;-62
2021/05/02 10:29:27;;;;;;;33.33;27.88;;;;;;;15.64;69.06;100172.06;4880109;28;98227;-60
2021/05/02 10:32:01;;;;;;;33.63;28.58;;;;;;;15.65;68.70;100176.44;4895829;28;99028;-60
2021/05/02 10:34:41;;;;;;;33.10;28.10;;;;;;;15.78;68.08;100180.19;4897811;28;98302;-60
2021/05/02 10:37:29;;;;;;;32.05;26.90;;;;;;;15.76;67.33;100179.69;4896499;28;111422;-60
2021/05/02 10:40:06;;;;;;;30.40;26.15;;;;;;;15.94;67.25;100173.28;4897021;28;98724;-64
2021/05/02 10:42:50;;;;;;;30.00;26.58;;;;;;;16.05;66.90;100179.25;4898161;28;98334;-60
2021/05/02 10:45:41;;;;;;;30.75;26.58;;;;;;;15.82;67.42;100179.25;4897197;28;98498;-60
2021/05/02 10:48:14;;;;;;;31.25;27.08;;;;;;;15.89;67.87;100185.06;4896794;28;98177;-63
2021/05/02 10:50:45;;;;;;;28.40;25.25;;;;;;;15.92;67.24;100189.91;4880271;28;98514;-60
2021/05/02 10:53:21;;;;;;;29.35;24.88;;;;;;;16.03;67.33;100187.72;4896588;28;103098;-63
2021/05/02 10:56:05;;;;;;;27.17;24.30;;;;;;;16.08;66.78;100201.19;4897757;28;98083;-60
2021/05/02 10:58:33;;;;;;;26.45;23.50;;;;;;;16.25;66.73;100195.06;4896502;28;97899;-60
2021/05/02 11:01:08;;;;;;;27.30;23.67;;;;;;;16.65;66.71;100201.31;4896773;28;120571;-63
2021/05/02 11:03:40;;;;;;;26.30;22.92;;;;;;;17.11;64.76;100204.72;4880337;28;99156;-63
2021/05/02 11:06:35;;;;;;;25.35;22.75;;;;;;;17.52;64.50;100207.00;4897414;28;98160;-60
2021/05/02 11:09:02;;;;;;;24.27;21.77;;;;;;;18.15;64.26;100200.06;4895382;28;97970;-60
2021/05/02 11:11:31;;;;;;;23.55;21.15;;;;;;;18.12;64.82;100210.84;4897019;28;99488;-60
2021/05/02 11:16:48;;;;;;;24.25;21.42;;;;;;;18.39;64.65;100206.91;4895930;28;98357;-63
2021/05/02 11:19:21;;;;;;;23.35;20.95;;;;;;;19.03;63.50;100216.97;4898514;28;98329;-60
2021/05/02 11:21:51;;;;;;;22.83;20.55;;;;;;;19.02;63.84;100215.34;4898441;28;98499;-60